createdAt,value
2019-02-10T00:00:52.769Z,68.19
2019-02-10T00:03:20.726Z,68.76
2019-02-10T00:05:48.678Z,68.82
2019-02-10T00:08:16.300Z,68.85
2019-02-10T00:10:43.918Z,68.91
2019-02-10T00:13:11.873Z,68.64
2019-02-10T00:15:39.490Z,69.13
2019-02-10T00:18:07.402Z,69.14
2019-02-10T00:20:35.269Z,69.57
2019-02-10T00:23:02.882Z,69.92
2019-02-10T00:25:30.500Z,69.00
2019-02-10T00:27:58.359Z,69.63
2019-02-10T00:30:25.966Z,70.34
2019-02-10T00:32:53.570Z,70.54
2019-02-10T00:35:21.549Z,70.16
2019-02-10T00:37:49.416Z,70.31
2019-02-10T00:40:17.406Z,70.61
2019-02-10T00:42:45.357Z,71.19
2019-02-10T00:45:13.324Z,70.06
2019-02-10T00:47:41.194Z,70.24
2019-02-10T00:50:09.063Z,70.65
2019-02-10T00:52:36.672Z,70.85
2019-02-10T00:55:04.290Z,71.22
2019-02-10T00:57:32.255Z,70.33
2019-02-10T01:00:00.222Z,69.98
2019-02-10T01:02:28.207Z,69.61
2019-02-10T01:04:56.162Z,69.69
2019-02-10T01:07:24.133Z,69.47
2019-02-10T01:09:51.751Z,69.25
2019-02-10T01:12:19.658Z,68.06
2019-02-10T01:14:47.292Z,68.27
2019-02-10T01:17:15.206Z,68.21
2019-02-10T01:19:43.058Z,67.92
2019-02-10T01:22:10.659Z,67.80
2019-02-10T01:24:38.589Z,67.68
2019-02-10T01:27:06.863Z,68.05
2019-02-10T01:29:34.836Z,67.67
2019-02-10T01:32:02.699Z,67.62
2019-02-10T01:34:30.671Z,67.99
2019-02-10T01:36:58.536Z,67.44
2019-02-10T01:39:26.335Z,67.21
2019-02-10T01:41:53.951Z,67.52
2019-02-10T01:44:21.833Z,67.67
2019-02-10T01:46:49.702Z,67.98
2019-02-10T01:49:17.316Z,68.41
2019-02-10T01:51:44.924Z,67.80
2019-02-10T01:54:12.546Z,67.72
2019-02-10T01:56:40.453Z,67.89
2019-02-10T01:59:08.069Z,67.45
2019-02-10T02:01:36.004Z,67.62
2019-02-10T02:04:03.952Z,67.87
2019-02-10T02:06:31.817Z,67.70
2019-02-10T02:08:59.793Z,67.71
2019-02-10T02:11:27.657Z,67.67
2019-02-10T02:13:55.258Z,68.21
2019-02-10T02:16:22.879Z,68.05
2019-02-10T02:18:50.847Z,68.30
2019-02-10T02:21:18.720Z,68.55
2019-02-10T02:23:46.320Z,68.89
2019-02-10T02:26:14.252Z,68.96
2019-02-10T02:28:42.111Z,69.46
2019-02-10T02:31:09.983Z,69.19
2019-02-10T02:33:37.876Z,69.66
2019-02-10T02:36:05.812Z,70.06
2019-02-10T02:38:33.431Z,70.11
2019-02-10T02:41:01.347Z,70.53
2019-02-10T02:43:28.960Z,71.13
2019-02-10T02:45:56.587Z,71.53
2019-02-10T02:48:24.432Z,71.13
2019-02-10T02:50:52.411Z,70.92
2019-02-10T02:53:20.398Z,70.49
2019-02-10T02:55:48.002Z,70.97
2019-02-10T02:58:15.903Z,71.46
2019-02-10T03:00:43.777Z,70.87
2019-02-10T03:03:11.383Z,71.31
2019-02-10T03:05:39.317Z,71.56
2019-02-10T03:08:07.285Z,71.70
2019-02-10T03:10:34.889Z,72.23
2019-02-10T03:13:02.498Z,72.09
2019-02-10T03:15:30.116Z,72.56
2019-02-10T03:17:58.020Z,73.29
2019-02-10T03:20:25.639Z,73.45
2019-02-10T03:22:53.243Z,73.94
2019-02-10T03:25:20.866Z,74.48
2019-02-10T03:27:48.477Z,74.57
2019-02-10T03:30:16.440Z,74.69
2019-02-10T03:32:44.331Z,75.22
2019-02-10T03:35:11.944Z,75.20
2019-02-10T03:37:39.848Z,74.37
2019-02-10T03:40:07.802Z,73.30
2019-02-10T03:42:35.739Z,72.71
2019-02-10T03:45:03.364Z,71.99
2019-02-10T03:47:31.311Z,71.83
2019-02-10T03:49:59.169Z,72.22
2019-02-10T03:52:27.168Z,70.11
2019-02-10T03:54:54.777Z,70.11
2019-02-10T03:57:22.400Z,70.86
2019-02-10T03:59:50.330Z,71.05
2019-02-10T04:02:17.965Z,71.52
2019-02-10T04:04:45.858Z,71.51
2019-02-10T04:07:13.744Z,72.21
2019-02-10T04:09:41.698Z,73.22
2019-02-10T04:12:09.674Z,73.64
2019-02-10T04:14:37.286Z,74.08
2019-02-10T04:17:05.213Z,73.58
2019-02-10T04:19:33.086Z,74.03
2019-02-10T04:22:00.704Z,74.85
2019-02-10T04:24:28.600Z,75.17
2019-02-10T04:26:56.566Z,74.93
2019-02-10T04:29:24.179Z,75.21
2019-02-10T04:31:51.794Z,75.88
2019-02-10T04:34:19.758Z,75.91
2019-02-10T04:36:47.732Z,76.30
2019-02-10T04:39:15.342Z,76.16
2019-02-10T04:41:43.254Z,76.07
2019-02-10T04:44:10.869Z,75.60
2019-02-10T04:46:38.784Z,74.98
2019-02-10T04:49:06.401Z,74.85
2019-02-10T04:51:34.028Z,74.55
2019-02-10T04:54:01.877Z,74.20
2019-02-10T04:56:29.746Z,73.93
2019-02-10T04:58:57.351Z,73.87
2019-02-10T05:01:25.281Z,73.33
2019-02-10T05:03:52.886Z,73.73
2019-02-10T05:06:20.805Z,73.69
2019-02-10T05:08:48.678Z,72.86
2019-02-10T05:11:16.665Z,72.51
2019-02-10T05:13:44.303Z,72.89
2019-02-10T05:16:11.894Z,73.04
2019-02-10T05:18:39.831Z,72.00
2019-02-10T05:21:07.802Z,72.00
2019-02-10T05:23:35.418Z,71.24
2019-02-10T05:26:03.332Z,71.24
2019-02-10T05:28:31.219Z,70.86
2019-02-10T05:30:59.164Z,71.04
2019-02-10T05:33:27.030Z,71.25
2019-02-10T05:35:55.033Z,71.24
2019-02-10T05:38:22.634Z,70.98
2019-02-10T05:40:50.243Z,71.14
2019-02-10T05:43:17.857Z,71.61
2019-02-10T05:45:45.464Z,71.65
2019-02-10T05:48:13.421Z,71.28
2019-02-10T05:50:41.401Z,71.87
2019-02-10T05:53:09.367Z,71.73
2019-02-10T05:55:37.328Z,71.82
2019-02-10T05:58:05.296Z,71.82
2019-02-10T06:00:33.171Z,71.82
2019-02-10T06:03:00.792Z,71.78
2019-02-10T06:05:28.397Z,72.12
2019-02-10T06:07:56.358Z,71.83
2019-02-10T06:10:24.288Z,71.94
2019-02-10T06:12:51.861Z,72.14
2019-02-10T06:15:19.755Z,71.85
2019-02-10T06:17:47.372Z,71.95
2019-02-10T06:20:14.987Z,72.09
2019-02-10T06:22:42.946Z,71.27
2019-02-10T06:25:10.569Z,71.37
2019-02-10T06:27:38.180Z,71.46
2019-02-10T06:30:05.784Z,70.88
2019-02-10T06:32:33.696Z,71.20
2019-02-10T06:35:01.582Z,71.22
2019-02-10T06:37:29.195Z,71.29
2019-02-10T06:39:57.093Z,70.95
2019-02-10T06:42:25.069Z,70.73
2019-02-10T06:44:52.683Z,70.53
2019-02-10T06:47:20.595Z,70.34
2019-02-10T06:49:48.209Z,70.34
2019-02-10T06:52:16.120Z,70.07
2019-02-10T06:54:52.928Z,69.66
2019-02-10T06:57:20.558Z,69.53
2019-02-10T07:00:14.033Z,69.33
2019-02-10T07:02:42.013Z,69.45
2019-02-10T07:05:09.627Z,69.74
2019-02-10T07:07:37.528Z,69.52
2019-02-10T07:10:05.497Z,69.31
2019-02-10T07:12:33.113Z,69.39
2019-02-10T07:15:01.029Z,69.35
2019-02-10T07:17:28.898Z,69.05
2019-02-10T07:19:56.506Z,68.98
2019-02-10T07:22:24.126Z,68.67
2019-02-10T07:24:52.091Z,68.96
2019-02-10T07:27:20.058Z,68.54
2019-02-10T07:29:47.664Z,68.46
2019-02-10T07:32:15.588Z,67.95
2019-02-10T07:34:48.275Z,67.97
2019-02-10T07:37:12.871Z,67.82
2019-02-10T07:39:40.506Z,68.02
2019-02-10T07:42:08.385Z,67.66
2019-02-10T07:44:36.257Z,67.45
2019-02-10T07:47:04.256Z,67.23
2019-02-10T07:49:32.199Z,67.08
2019-02-10T07:51:59.827Z,67.61
2019-02-10T07:54:27.436Z,67.36
2019-02-10T07:56:55.043Z,67.69
2019-02-10T07:59:22.947Z,67.25
2019-02-10T08:01:50.913Z,67.16
2019-02-10T08:04:18.779Z,67.09
2019-02-10T08:06:46.754Z,66.35
2019-02-10T08:09:14.364Z,65.70
2019-02-10T08:11:42.279Z,65.84
2019-02-10T08:14:09.901Z,65.54
2019-02-10T08:16:37.807Z,65.22
2019-02-10T08:19:05.696Z,65.12
2019-02-10T08:21:33.643Z,64.95
2019-02-10T08:24:01.528Z,64.87
2019-02-10T08:26:29.132Z,65.09
2019-02-10T08:28:56.751Z,64.71
2019-02-10T08:31:24.709Z,64.96
2019-02-10T08:33:52.674Z,64.42
2019-02-10T08:36:20.673Z,64.50
2019-02-10T08:38:54.452Z,64.48
2019-02-10T08:41:18.220Z,63.84
2019-02-10T08:43:46.110Z,63.69
2019-02-10T08:46:14.068Z,63.21
2019-02-10T08:48:42.135Z,63.24
2019-02-10T08:51:09.741Z,63.49
2019-02-10T08:53:37.365Z,63.34
2019-02-10T08:56:04.968Z,62.91
2019-02-10T08:58:32.886Z,63.02
2019-02-10T09:01:00.754Z,62.55
2019-02-10T09:03:28.615Z,62.50
2019-02-10T09:05:56.488Z,62.36
2019-02-10T09:08:24.474Z,62.25
2019-02-10T09:10:52.085Z,62.14
2019-02-10T09:13:19.984Z,61.76
2019-02-10T09:15:47.856Z,61.78
2019-02-10T09:18:15.820Z,61.69
2019-02-10T09:20:43.438Z,61.36
2019-02-10T09:23:11.349Z,61.75
2019-02-10T09:25:39.216Z,61.21
2019-02-10T09:28:07.109Z,61.44
2019-02-10T09:30:35.058Z,61.19
2019-02-10T09:33:03.027Z,60.69
2019-02-10T09:35:30.634Z,60.36
2019-02-10T09:37:58.573Z,60.56
2019-02-10T09:40:26.523Z,60.45
2019-02-10T09:42:54.491Z,60.39
2019-02-10T09:45:22.358Z,60.11
2019-02-10T09:47:49.979Z,60.05
2019-02-10T09:50:17.593Z,59.54
2019-02-10T09:52:45.561Z,59.83
2019-02-10T09:55:13.424Z,59.46
2019-02-10T09:57:41.035Z,59.82
2019-02-10T10:00:08.950Z,59.48
2019-02-10T10:02:36.814Z,59.63
2019-02-10T10:05:04.435Z,59.42
2019-02-10T10:07:32.351Z,59.64
2019-02-10T10:10:00.325Z,59.25
2019-02-10T10:12:27.937Z,59.68
2019-02-10T10:14:55.849Z,59.56
2019-02-10T10:17:23.730Z,59.62
2019-02-10T10:19:51.698Z,59.29
2019-02-10T10:22:19.291Z,59.09
2019-02-10T10:24:50.576Z,59.22
2019-02-10T10:27:16.644Z,59.08
2019-02-10T10:29:44.603Z,58.89
2019-02-10T10:32:12.211Z,58.81
2019-02-10T10:34:40.115Z,58.61
2019-02-10T10:37:07.725Z,57.94
2019-02-10T10:39:35.648Z,57.57
2019-02-10T10:42:03.622Z,57.51
2019-02-10T10:44:31.258Z,57.50
2019-02-10T10:46:58.869Z,57.41
2019-02-10T10:49:26.829Z,57.48
2019-02-10T10:51:54.779Z,57.82
2019-02-10T10:54:22.786Z,57.25
2019-02-10T10:56:50.843Z,58.12
2019-02-10T10:59:18.539Z,57.67
2019-02-10T11:01:46.268Z,57.58
2019-02-10T11:04:14.357Z,58.26
2019-02-10T11:06:42.412Z,58.21
2019-02-10T11:09:10.002Z,58.19
2019-02-10T11:11:37.924Z,58.02
2019-02-10T11:14:05.894Z,58.46
2019-02-10T11:16:33.757Z,58.35
2019-02-10T11:19:01.729Z,58.26
2019-02-10T11:21:29.598Z,58.34
2019-02-10T11:23:57.463Z,58.17
2019-02-10T11:26:25.332Z,58.30
2019-02-10T11:28:53.213Z,58.39
2019-02-10T11:31:21.165Z,58.26
2019-02-10T11:33:48.785Z,58.36
2019-02-10T11:36:16.396Z,58.26
2019-02-10T11:38:44.356Z,58.29
2019-02-10T11:41:11.975Z,58.59
2019-02-10T11:43:39.587Z,58.45
2019-02-10T11:46:07.443Z,58.78
2019-02-10T11:48:35.416Z,58.61
2019-02-10T11:51:03.385Z,58.67
2019-02-10T11:53:31.275Z,58.75
2019-02-10T11:55:58.888Z,59.37
2019-02-10T11:58:26.784Z,59.47
2019-02-10T12:00:54.403Z,59.52
2019-02-10T12:03:22.313Z,60.55
2019-02-10T12:05:49.930Z,60.68
2019-02-10T12:08:17.844Z,60.29
2019-02-10T12:10:45.820Z,59.27
2019-02-10T12:13:13.800Z,59.49
2019-02-10T12:15:41.759Z,59.49
2019-02-10T12:18:09.721Z,59.72
2019-02-10T12:20:37.693Z,59.39
2019-02-10T12:23:05.664Z,59.80
2019-02-10T12:25:33.289Z,59.49
2019-02-10T12:28:01.186Z,59.50
2019-02-10T12:30:29.163Z,59.59
2019-02-10T12:32:57.026Z,59.24
2019-02-10T12:35:24.892Z,59.60
2019-02-10T12:37:52.500Z,59.17
2019-02-10T12:40:20.430Z,59.14
2019-02-10T12:42:48.299Z,58.95
2019-02-10T12:45:16.265Z,59.32
2019-02-10T12:47:43.871Z,59.38
2019-02-10T12:50:11.790Z,59.26
2019-02-10T12:52:39.395Z,58.62
2019-02-10T12:55:07.321Z,58.92
2019-02-10T12:57:35.186Z,58.54
2019-02-10T13:00:03.157Z,58.53
2019-02-10T13:02:31.022Z,58.17
2019-02-10T13:04:58.908Z,57.79
2019-02-10T13:07:26.518Z,57.35
2019-02-10T13:09:54.135Z,57.55
2019-02-10T13:12:21.744Z,57.72
2019-02-10T13:14:49.363Z,57.75
2019-02-10T13:17:16.975Z,57.41
2019-02-10T13:19:44.591Z,57.51
2019-02-10T13:22:12.529Z,56.32
2019-02-10T13:24:40.502Z,57.07
2019-02-10T13:27:08.430Z,56.84
2019-02-10T13:29:36.051Z,57.19
2019-02-10T13:32:03.662Z,56.98
2019-02-10T13:34:31.562Z,57.16
2019-02-10T13:36:59.430Z,56.91
2019-02-10T13:39:27.392Z,57.09
2019-02-10T13:41:55.263Z,57.61
2019-02-10T13:44:24.064Z,57.39
2019-02-10T13:46:51.916Z,57.50
2019-02-10T13:49:19.784Z,57.09
2019-02-10T13:51:47.755Z,57.17
2019-02-10T13:54:15.732Z,57.41
2019-02-10T13:56:43.352Z,57.42
2019-02-10T13:59:10.958Z,57.84
2019-02-10T14:01:38.627Z,57.12
2019-02-10T14:04:06.183Z,57.20
2019-02-10T14:06:34.139Z,57.53
2019-02-10T14:09:02.009Z,57.44
2019-02-10T14:11:29.619Z,57.17
2019-02-10T14:13:57.547Z,56.77
2019-02-10T14:16:25.162Z,57.24
2019-02-10T14:18:53.085Z,57.82
2019-02-10T14:21:20.690Z,56.79
2019-02-10T14:23:48.302Z,56.99
2019-02-10T14:26:16.261Z,57.41
2019-02-10T14:28:44.229Z,57.59
2019-02-10T14:31:11.841Z,57.36
2019-02-10T14:33:39.774Z,57.54
2019-02-10T14:36:07.724Z,57.03
2019-02-10T14:38:36.723Z,56.16
2019-02-10T14:41:04.307Z,56.93
2019-02-10T14:43:32.247Z,56.89
2019-02-10T14:46:00.220Z,56.51
2019-02-10T14:48:28.213Z,56.80
2019-02-10T14:50:55.833Z,57.03
2019-02-10T14:53:23.732Z,57.53
2019-02-10T14:55:51.702Z,58.36
2019-02-10T14:58:19.551Z,58.38
2019-02-10T15:00:47.429Z,57.72
2019-02-10T15:03:15.288Z,58.28
2019-02-10T15:05:43.156Z,56.93
2019-02-10T15:08:11.127Z,57.35
2019-02-10T15:10:42.005Z,57.46
2019-02-10T15:13:08.396Z,56.88
2019-02-10T15:15:36.013Z,57.10
2019-02-10T15:18:03.929Z,55.77
2019-02-10T15:20:31.895Z,56.50
2019-02-10T15:22:59.499Z,57.13
2019-02-10T15:25:28.179Z,56.81
2019-02-10T15:27:56.215Z,55.34
2019-02-10T15:30:24.212Z,54.25
2019-02-10T15:32:52.155Z,53.48
2019-02-10T15:35:20.125Z,53.17
2019-02-10T15:37:47.992Z,52.95
2019-02-10T15:40:15.604Z,53.21
2019-02-10T15:42:43.525Z,53.20
2019-02-10T15:45:11.495Z,53.05
2019-02-10T15:47:39.133Z,52.67
2019-02-10T15:50:07.021Z,53.81
2019-02-10T15:52:34.996Z,54.14
2019-02-10T15:55:02.965Z,53.71
2019-02-10T15:57:30.928Z,54.05
2019-02-10T15:59:58.539Z,55.21
2019-02-10T16:02:26.462Z,55.02
2019-02-10T16:04:54.430Z,54.84
2019-02-10T16:07:22.407Z,54.21
2019-02-10T16:09:50.269Z,54.76
2019-02-10T16:22:39.838Z,55.51
2019-02-10T16:25:07.615Z,51.51
2019-02-10T16:27:35.285Z,50.12
2019-02-10T16:30:02.941Z,51.22
2019-02-10T16:32:30.606Z,48.19
2019-02-10T16:34:58.275Z,47.45
2019-02-10T16:41:39.723Z,45.45
2019-02-10T16:44:07.509Z,45.34
2019-02-10T16:49:17.532Z,34.45
2019-02-10T16:51:45.312Z,41.17
2019-02-10T16:54:12.967Z,46.02
2019-02-10T16:56:40.616Z,47.97
2019-02-10T16:59:08.265Z,50.29
2019-02-10T17:01:35.915Z,51.50
2019-02-10T17:04:03.642Z,51.71
2019-02-10T17:06:31.297Z,52.54
2019-02-10T17:08:59.036Z,52.47
2019-02-10T17:11:26.693Z,53.20
2019-02-10T17:13:54.353Z,53.41
2019-02-10T17:16:22.010Z,53.71
2019-02-10T17:18:49.676Z,53.74
2019-02-10T17:21:17.325Z,53.54
2019-02-10T17:23:44.978Z,53.08
2019-02-10T17:26:12.646Z,53.10
2019-02-10T17:28:40.354Z,53.60
2019-02-10T17:31:08.017Z,53.21
2019-02-10T17:33:35.754Z,53.10
2019-02-10T17:36:03.411Z,53.72
2019-02-10T17:38:31.064Z,53.65
2019-02-10T17:40:58.713Z,53.07
2019-02-10T17:43:28.173Z,53.27
2019-02-10T17:45:55.728Z,53.02
2019-02-10T17:48:23.376Z,53.36
2019-02-10T17:50:51.039Z,53.29
2019-02-10T17:53:18.704Z,53.22
2019-02-10T17:55:46.358Z,52.66
2019-02-10T17:58:14.012Z,53.56
2019-02-10T18:00:45.293Z,54.17
2019-02-10T18:03:12.956Z,53.73
2019-02-10T18:05:40.617Z,54.14
2019-02-10T18:08:08.268Z,54.70
2019-02-10T18:10:35.969Z,54.87
2019-02-10T18:13:03.653Z,55.25
2019-02-10T18:15:50.513Z,55.41
2019-02-10T18:18:28.461Z,55.53
2019-02-10T18:21:08.707Z,55.62
2019-02-10T18:23:47.131Z,56.21
2019-02-10T18:26:26.052Z,56.51
2019-02-10T18:29:00.256Z,57.40
2019-02-10T18:31:47.821Z,57.50
2019-02-10T18:34:26.413Z,57.91
2019-02-10T18:37:06.335Z,57.72
2019-02-10T18:39:42.637Z,57.97
2019-02-10T18:42:20.957Z,58.73
2019-02-10T18:44:53.307Z,59.85
2019-02-10T18:47:26.266Z,60.02
2019-02-10T18:49:59.257Z,60.49
2019-02-10T18:52:50.925Z,60.16
2019-02-10T18:55:26.174Z,60.27
2019-02-10T18:58:02.111Z,60.23
2019-02-10T19:00:35.103Z,60.19
2019-02-10T19:03:11.881Z,61.00
2019-02-10T19:05:48.237Z,60.44
2019-02-10T19:08:21.094Z,60.13
2019-02-10T19:11:07.803Z,60.60
2019-02-10T19:13:55.518Z,60.18
2019-02-10T19:16:43.052Z,60.78
2019-02-10T19:19:16.168Z,60.57
2019-02-10T19:22:04.781Z,60.13
2019-02-10T19:24:46.361Z,59.91
2019-02-10T19:27:20.858Z,60.42
2019-02-10T19:29:57.423Z,60.60
2019-02-10T19:32:33.789Z,60.72
2019-02-10T19:35:20.490Z,61.57
2019-02-10T19:37:53.473Z,61.31
2019-02-10T19:40:30.761Z,61.50
2019-02-10T19:43:22.778Z,61.36
2019-02-10T19:46:00.186Z,61.52
2019-02-10T19:48:40.320Z,61.77
2019-02-10T19:51:19.476Z,61.71
2019-02-10T19:53:53.909Z,62.21
2019-02-10T19:56:31.901Z,62.75
2019-02-10T19:59:08.073Z,62.76
2019-02-10T20:01:46.179Z,62.91
2019-02-10T20:04:22.641Z,62.26
2019-02-10T20:06:57.186Z,62.35
2019-02-10T20:09:32.722Z,62.78
2019-02-10T20:12:05.544Z,62.55
2019-02-10T20:14:42.377Z,62.36
2019-02-10T20:17:15.579Z,62.30
2019-02-10T20:19:48.637Z,62.92
2019-02-10T20:22:21.953Z,62.66
2019-02-10T20:25:08.649Z,63.13
2019-02-10T20:27:47.181Z,62.15
2019-02-10T20:30:26.721Z,62.59
2019-02-10T20:33:02.372Z,62.79
2019-02-10T20:35:37.197Z,63.53
2019-02-10T20:38:14.589Z,63.25
2019-02-10T20:40:48.509Z,63.58
2019-02-10T20:43:23.342Z,63.76
2019-02-10T20:46:02.370Z,63.33
2019-02-10T20:48:40.069Z,63.82
2019-02-10T20:51:14.165Z,62.54
2019-02-10T20:53:53.608Z,62.59
2019-02-10T20:56:34.841Z,63.00
2019-02-10T20:59:23.505Z,63.09
2019-02-10T21:01:59.615Z,62.95
2019-02-10T21:04:38.027Z,62.00
2019-02-10T21:07:16.238Z,62.52
2019-02-10T21:09:55.461Z,62.01
2019-02-10T21:12:33.978Z,61.80
2019-02-10T21:15:10.657Z,62.23
2019-02-10T21:17:48.777Z,61.56
2019-02-10T21:20:36.422Z,61.02
2019-02-10T21:23:08.874Z,61.23
2019-02-10T21:25:41.862Z,61.10
2019-02-10T21:28:16.079Z,61.64
2019-02-10T21:31:04.777Z,60.93
2019-02-10T21:33:42.017Z,61.63
2019-02-10T21:36:34.660Z,60.95
2019-02-10T21:39:10.325Z,61.04
2019-02-10T21:41:49.049Z,60.91
2019-02-10T21:44:22.023Z,61.05
2019-02-10T22:01:25.217Z,61.96
2019-02-10T22:03:52.861Z,62.14
2019-02-10T22:06:20.510Z,62.66
2019-02-10T22:08:48.239Z,61.83
2019-02-10T22:11:15.887Z,61.55
2019-02-10T22:13:43.529Z,61.77
2019-02-10T22:16:11.178Z,61.66
2019-02-10T22:18:38.825Z,62.02
2019-02-10T22:21:06.467Z,62.11
2019-02-10T22:23:34.125Z,62.57
2019-02-10T22:26:01.764Z,62.33
2019-02-10T22:28:29.409Z,62.38
2019-02-10T22:30:57.048Z,62.79
2019-02-10T22:33:24.710Z,62.97
2019-02-10T22:35:52.352Z,62.11
2019-02-10T22:38:19.998Z,61.98
2019-02-10T22:40:47.641Z,62.18
2019-02-10T22:43:15.278Z,62.27
2019-02-10T22:45:42.925Z,62.56
2019-02-10T22:48:10.565Z,62.35
2019-02-10T22:50:38.210Z,62.04
2019-02-10T22:53:05.863Z,61.95
2019-02-10T22:55:33.509Z,62.87
2019-02-10T22:58:01.150Z,62.67
2019-02-10T23:00:34.105Z,62.83
2019-02-10T23:03:01.749Z,62.83
2019-02-10T23:05:29.404Z,62.73
2019-02-10T23:07:57.054Z,62.73
2019-02-10T23:10:24.685Z,62.68
2019-02-10T23:12:53.730Z,63.19
2019-02-10T23:15:21.657Z,63.29
2019-02-10T23:17:49.323Z,62.95
2019-02-10T23:20:17.013Z,62.82
2019-02-10T23:22:44.650Z,62.79
2019-02-10T23:25:12.296Z,63.33
2019-02-10T23:27:39.927Z,63.44
2019-02-10T23:30:07.571Z,63.33
2019-02-10T23:32:35.211Z,63.11
2019-02-10T23:35:02.853Z,62.42
2019-02-10T23:37:30.497Z,63.14
2019-02-10T23:39:58.141Z,63.38
2019-02-10T23:42:25.785Z,62.98
2019-02-10T23:44:53.425Z,62.54
2019-02-10T23:47:21.117Z,62.71
2019-02-10T23:49:48.774Z,62.11
2019-02-10T23:52:16.416Z,62.09
2019-02-10T23:54:44.059Z,61.95
2019-02-10T23:57:11.713Z,62.06
2019-02-10T23:59:39.362Z,62.04
